createdAt,value
2023-08-04T00:01:56.380Z,93685.00
2023-08-04T00:04:25.638Z,93686.00
2023-08-04T00:06:55.289Z,93685.00
2023-08-04T00:09:24.680Z,93691.00
2023-08-04T00:11:51.512Z,93687.00
2023-08-04T00:14:18.471Z,93688.00
2023-08-04T00:16:47.622Z,93689.00
2023-08-04T00:19:14.674Z,93692.00
2023-08-04T00:21:41.501Z,93697.00
2023-08-04T00:24:08.564Z,93692.00
2023-08-04T00:26:35.468Z,93690.00
2023-08-04T00:29:06.877Z,93699.00
2023-08-04T00:31:33.798Z,93694.00
2023-08-04T00:34:01.560Z,93688.00
2023-08-04T00:36:30.556Z,93692.00
2023-08-04T00:39:00.348Z,93696.00
2023-08-04T00:41:27.220Z,93700.00
2023-08-04T00:43:54.188Z,93697.00
2023-08-04T00:46:22.814Z,93696.00
2023-08-04T00:48:49.866Z,93700.00
2023-08-04T00:51:16.833Z,93692.00
2023-08-04T00:53:44.280Z,93698.00
2023-08-04T00:56:13.337Z,93696.00
2023-08-04T00:58:40.237Z,93694.00
2023-08-04T01:01:11.762Z,93694.00
2023-08-04T01:03:41.969Z,93690.00
2023-08-04T01:06:26.285Z,93696.00
2023-08-04T01:09:37.759Z,93685.00
2023-08-04T01:12:17.903Z,93684.00
2023-08-04T01:14:48.595Z,93676.00
2023-08-04T01:17:32.524Z,93675.00
2023-08-04T01:20:04.401Z,93668.00
2023-08-04T01:22:31.262Z,93663.00
2023-08-04T01:25:00.321Z,93669.00
2023-08-04T01:27:42.587Z,93659.00
2023-08-04T01:30:22.878Z,93657.00
2023-08-04T01:32:52.571Z,93658.00
2023-08-04T01:35:19.702Z,93654.00
2023-08-04T01:37:46.682Z,93657.00
2023-08-04T01:40:16.321Z,93647.00
2023-08-04T01:42:43.326Z,93650.00
2023-08-04T01:45:14.769Z,93637.00
2023-08-04T01:47:46.072Z,93637.00
2023-08-04T01:50:13.016Z,93643.00
2023-08-04T01:52:41.980Z,93642.00
2023-08-04T01:55:09.182Z,93645.00
2023-08-04T01:57:36.063Z,93650.00
2023-08-04T02:00:03.771Z,93652.00
2023-08-04T02:02:32.883Z,93663.00
2023-08-04T02:04:59.930Z,93660.00
2023-08-04T02:07:26.871Z,93663.00
2023-08-04T02:09:56.250Z,93667.00
2023-08-04T02:12:23.132Z,93667.00
2023-08-04T02:14:50.092Z,93675.00
2023-08-04T02:17:19.477Z,93668.00
2023-08-04T02:19:48.712Z,93673.00
2023-08-04T02:22:15.701Z,93673.00
2023-08-04T02:24:42.563Z,93673.00
2023-08-04T02:27:09.415Z,93673.00
2023-08-04T02:29:38.642Z,93659.00
2023-08-04T02:32:05.852Z,93675.00
2023-08-04T02:34:32.723Z,93673.00
2023-08-04T02:36:59.641Z,93674.00
2023-08-04T02:39:28.928Z,93676.00
2023-08-04T02:41:58.612Z,93675.00
2023-08-04T02:44:25.579Z,93680.00
2023-08-04T02:46:52.540Z,93669.00
2023-08-04T02:49:19.469Z,93671.00
2023-08-04T02:51:46.625Z,93677.00
2023-08-04T02:54:18.677Z,93670.00
2023-08-04T02:56:47.822Z,93660.00
2023-08-04T02:59:14.787Z,93664.00
2023-08-04T03:01:42.106Z,93666.00
2023-08-04T03:04:09.051Z,93659.00
2023-08-04T03:06:35.931Z,93651.00
2023-08-04T03:09:07.359Z,93648.00
2023-08-04T03:11:34.262Z,93656.00
2023-08-04T03:14:03.671Z,93658.00
2023-08-04T03:16:31.057Z,93642.00
2023-08-04T03:19:00.564Z,93644.00
2023-08-04T03:21:27.585Z,93649.00
2023-08-04T03:23:57.002Z,93649.00
2023-08-04T03:26:23.923Z,93649.00
2023-08-04T03:28:50.798Z,93645.00
2023-08-04T03:31:17.764Z,93648.00
2023-08-04T03:33:44.845Z,93648.00
2023-08-04T03:36:11.734Z,93657.00
2023-08-04T03:38:38.592Z,93663.00
2023-08-04T03:41:05.532Z,93664.00
2023-08-04T03:43:32.422Z,93656.00
2023-08-04T03:46:02.325Z,93653.00
2023-08-04T03:48:29.259Z,93656.00
2023-08-04T03:50:56.135Z,93656.00
2023-08-04T03:53:23.181Z,93649.00
2023-08-04T03:55:50.118Z,93655.00
2023-08-04T03:58:19.245Z,93664.00
2023-08-04T04:00:46.144Z,93663.00
2023-08-04T04:03:13.067Z,93669.00
2023-08-04T04:05:42.637Z,93670.00
2023-08-04T04:08:09.507Z,93667.00
2023-08-04T04:10:38.791Z,93673.00
2023-08-04T04:13:08.523Z,93673.00
2023-08-04T04:15:35.679Z,93677.00
2023-08-04T04:18:02.568Z,93678.00
2023-08-04T04:20:31.778Z,93680.00
2023-08-04T04:22:58.635Z,93690.00
2023-08-04T04:25:28.130Z,93688.00
2023-08-04T04:27:59.711Z,93683.00
2023-08-04T04:30:26.552Z,93692.00
2023-08-04T04:32:58.352Z,93686.00
2023-08-04T04:35:30.753Z,93694.00
2023-08-04T04:37:59.836Z,93691.00
2023-08-04T04:40:26.775Z,93691.00
2023-08-04T04:42:53.851Z,93685.00
2023-08-04T04:45:22.830Z,93696.00
2023-08-04T04:47:55.093Z,93689.00
2023-08-04T04:50:22.135Z,93690.00
2023-08-04T04:52:49.026Z,93691.00
2023-08-04T04:55:15.907Z,93699.00
2023-08-04T04:57:42.799Z,93696.00
2023-08-04T05:00:12.907Z,93693.00
2023-08-04T05:02:39.820Z,93702.00
2023-08-04T05:05:09.793Z,93696.00
2023-08-04T05:07:39.811Z,93699.00
2023-08-04T05:10:11.542Z,93700.00
2023-08-04T05:12:38.740Z,93700.00
2023-08-04T05:15:06.677Z,93692.00
2023-08-04T05:17:36.782Z,93700.00
2023-08-04T05:20:04.683Z,93702.00
2023-08-04T05:22:33.876Z,93700.00
2023-08-04T05:25:10.289Z,93705.00
2023-08-04T05:27:41.354Z,93703.00
2023-08-04T05:30:09.197Z,93698.00
2023-08-04T05:32:38.722Z,93698.00
2023-08-04T05:35:10.321Z,93701.00
2023-08-04T05:37:39.596Z,93700.00
2023-08-04T05:40:07.986Z,93701.00
2023-08-04T05:42:37.354Z,93691.00
2023-08-04T05:45:04.872Z,93691.00
2023-08-04T05:47:31.860Z,93698.00
2023-08-04T05:49:58.774Z,93693.00
2023-08-04T05:52:25.716Z,93690.00
2023-08-04T05:54:56.542Z,93685.00
2023-08-04T05:57:23.473Z,93698.00
2023-08-04T05:59:52.646Z,93699.00
2023-08-04T06:02:19.498Z,93699.00
2023-08-04T06:04:48.605Z,93703.00
2023-08-04T06:07:18.167Z,93700.00
2023-08-04T06:09:47.181Z,93698.00
2023-08-04T06:12:14.349Z,93704.00
2023-08-04T06:14:43.010Z,93702.00
2023-08-04T06:17:09.890Z,93705.00
2023-08-04T06:19:40.075Z,93707.00
2023-08-04T06:22:09.261Z,93708.00
2023-08-04T06:24:36.224Z,93701.00
2023-08-04T06:27:07.040Z,93706.00
2023-08-04T06:29:33.909Z,93700.00
2023-08-04T06:32:01.002Z,93698.00
2023-08-04T06:34:27.954Z,93696.00
2023-08-04T06:36:55.034Z,93702.00
2023-08-04T06:39:24.489Z,93702.00
2023-08-04T06:41:56.036Z,93707.00
2023-08-04T06:44:22.910Z,93712.00
2023-08-04T06:46:49.872Z,93717.00
2023-08-04T06:49:16.784Z,93719.00
2023-08-04T06:51:46.153Z,93716.00
2023-08-04T06:54:13.277Z,93722.00
2023-08-04T06:56:40.162Z,93716.00
2023-08-04T06:59:07.086Z,93719.00
2023-08-04T07:01:36.144Z,93718.00
2023-08-04T07:04:03.090Z,93722.00
2023-08-04T07:06:31.113Z,93710.00
2023-08-04T07:09:00.329Z,93719.00
2023-08-04T07:11:30.070Z,93720.00
2023-08-04T07:13:59.504Z,93721.00
2023-08-04T07:16:29.460Z,93714.00
2023-08-04T07:18:56.415Z,93714.00
2023-08-04T07:21:23.320Z,93725.00
2023-08-04T07:23:50.307Z,93733.00
2023-08-04T07:26:17.216Z,93731.00
2023-08-04T07:28:44.268Z,93732.00
2023-08-04T07:31:11.833Z,93737.00
2023-08-04T07:33:41.858Z,93738.00
2023-08-04T07:36:11.305Z,93741.00
2023-08-04T07:38:40.304Z,93731.00
2023-08-04T07:41:12.793Z,93729.00
2023-08-04T07:43:42.233Z,93725.00
2023-08-04T07:46:19.326Z,93721.00
2023-08-04T07:48:50.088Z,93715.00
2023-08-04T07:51:17.274Z,93713.00
2023-08-04T07:53:44.386Z,93720.00
2023-08-04T07:56:11.632Z,93711.00
2023-08-04T07:58:40.940Z,93711.00
2023-08-04T08:01:08.107Z,93717.00
2023-08-04T08:03:36.397Z,93720.00
2023-08-04T08:06:04.094Z,93721.00
2023-08-04T08:08:32.183Z,93717.00
2023-08-04T08:10:59.756Z,93716.00
2023-08-04T08:13:30.044Z,93726.00
2023-08-04T08:15:58.534Z,93727.00
2023-08-04T08:18:25.685Z,93730.00
2023-08-04T08:20:52.763Z,93723.00
2023-08-04T08:23:19.745Z,93730.00
2023-08-04T08:25:49.148Z,93732.00
2023-08-04T08:28:18.272Z,93736.00
2023-08-04T08:30:47.734Z,93737.00
2023-08-04T08:33:14.631Z,93738.00
2023-08-04T08:35:41.668Z,93744.00
2023-08-04T08:38:08.582Z,93748.00
2023-08-04T08:40:35.471Z,93751.00
2023-08-04T08:43:02.926Z,93744.00
2023-08-04T08:45:30.386Z,93750.00
2023-08-04T08:48:00.439Z,93755.00
2023-08-04T08:50:28.649Z,93755.00
2023-08-04T08:53:15.681Z,93752.00
2023-08-04T08:55:44.012Z,93759.00
2023-08-04T08:58:11.925Z,93752.00
2023-08-04T09:00:38.981Z,93756.00
2023-08-04T09:03:08.622Z,93754.00
2023-08-04T09:05:35.933Z,93758.00
2023-08-04T09:08:06.213Z,93759.00
2023-08-04T09:10:35.820Z,93752.00
2023-08-04T09:13:03.544Z,93744.00
2023-08-04T09:15:50.437Z,93746.00
2023-08-04T09:18:34.440Z,93739.00
2023-08-04T09:21:14.997Z,93737.00
2023-08-04T09:23:52.488Z,93733.00
2023-08-04T09:26:20.085Z,93738.00
2023-08-04T09:29:03.485Z,93747.00
2023-08-04T09:31:42.717Z,93734.00
2023-08-04T09:34:13.258Z,93725.00
2023-08-04T09:36:52.603Z,93728.00
2023-08-04T09:39:19.576Z,93724.00
2023-08-04T09:41:48.420Z,93713.00
2023-08-04T09:44:17.990Z,93721.00
2023-08-04T09:46:57.362Z,93712.00
2023-08-04T09:49:26.479Z,93700.00
2023-08-04T09:51:57.715Z,93703.00
2023-08-04T09:54:24.549Z,93706.00
2023-08-04T09:56:52.166Z,93715.00
2023-08-04T09:59:20.792Z,93706.00
2023-08-04T10:01:50.787Z,93714.00
2023-08-04T10:04:18.843Z,93706.00
2023-08-04T10:06:46.596Z,93716.00
2023-08-04T10:09:13.701Z,93717.00
2023-08-04T10:11:45.852Z,93705.00
2023-08-04T10:14:15.665Z,93703.00
2023-08-04T10:16:45.609Z,93706.00
2023-08-04T10:19:14.154Z,93701.00
2023-08-04T10:21:44.103Z,93696.00
2023-08-04T10:24:13.327Z,93704.00
2023-08-04T10:26:49.664Z,93701.00
2023-08-04T10:29:17.554Z,93698.00
2023-08-04T10:31:58.189Z,93702.00
2023-08-04T10:34:34.713Z,93698.00
2023-08-04T10:37:10.333Z,93701.00
2023-08-04T10:39:58.432Z,93707.00
2023-08-04T10:42:33.686Z,93700.00
2023-08-04T10:45:07.162Z,93699.00
2023-08-04T10:48:10.392Z,93693.00
2023-08-04T10:50:35.699Z,93695.00
2023-08-04T10:53:03.247Z,93698.00
2023-08-04T10:55:30.182Z,93696.00
2023-08-04T10:57:57.086Z,93699.00
2023-08-04T11:00:26.465Z,93699.00
2023-08-04T11:02:55.887Z,93708.00
2023-08-04T11:05:25.331Z,93706.00
2023-08-04T11:07:52.584Z,93705.00
2023-08-04T11:10:23.912Z,93706.00
2023-08-04T11:12:54.033Z,93710.00
2023-08-04T11:15:20.926Z,93723.00
2023-08-04T11:17:47.920Z,93735.00
2023-08-04T11:22:48.557Z,93737.00
2023-08-04T11:25:15.643Z,93740.00
2023-08-04T11:27:43.537Z,93748.00
2023-08-04T11:30:13.548Z,93758.00
2023-08-04T11:32:40.653Z,93759.00
2023-08-04T11:35:10.214Z,93760.00
2023-08-04T11:37:40.159Z,93747.00
2023-08-04T11:40:23.710Z,93748.00
2023-08-04T11:42:52.109Z,93747.00
2023-08-04T11:45:22.561Z,93748.00
2023-08-04T11:47:49.706Z,93753.00
2023-08-04T11:50:21.623Z,93750.00
2023-08-04T11:52:51.228Z,93752.00
2023-08-04T11:55:21.009Z,93748.00
2023-08-04T11:57:52.603Z,93748.00
2023-08-04T12:00:34.009Z,93752.00
2023-08-04T12:03:05.848Z,93748.00
2023-08-04T12:05:37.880Z,93751.00
2023-08-04T12:08:15.196Z,93741.00
2023-08-04T12:10:43.515Z,93741.00
2023-08-04T12:13:36.604Z,93739.00
2023-08-04T12:16:07.027Z,93731.00
2023-08-04T12:18:34.081Z,93736.00
2023-08-04T12:21:01.114Z,93732.00
2023-08-04T12:23:30.329Z,93735.00
2023-08-04T12:25:57.383Z,93738.00
2023-08-04T12:28:26.814Z,93736.00
2023-08-04T12:33:27.998Z,93728.00
2023-08-04T12:35:54.908Z,93732.00
2023-08-04T12:38:24.635Z,93730.00
2023-08-04T12:40:51.653Z,93726.00
2023-08-04T12:43:18.657Z,93716.00
2023-08-04T12:45:48.764Z,93713.00
2023-08-04T12:48:21.701Z,93722.00
2023-08-04T12:50:50.761Z,93742.00
2023-08-04T12:53:17.858Z,93746.00
2023-08-04T12:55:44.882Z,93746.00
2023-08-04T12:58:11.899Z,93746.00
2023-08-04T13:00:38.856Z,93753.00
2023-08-04T13:03:05.913Z,93745.00
2023-08-04T13:05:32.962Z,93751.00
2023-08-04T13:08:04.768Z,93750.00
2023-08-04T13:10:35.404Z,93741.00
2023-08-04T13:13:02.418Z,93749.00
2023-08-04T13:15:30.000Z,93744.00
2023-08-04T13:17:57.003Z,93736.00
2023-08-04T13:20:23.982Z,93738.00
2023-08-04T13:22:50.979Z,93724.00
2023-08-04T13:25:17.941Z,93723.00
2023-08-04T13:27:49.592Z,93724.00
2023-08-04T13:30:18.702Z,93729.00
2023-08-04T13:32:50.742Z,93734.00
2023-08-04T13:35:17.831Z,93753.00
2023-08-04T13:37:49.470Z,93762.00
2023-08-04T13:40:19.632Z,93774.00
2023-08-04T13:42:49.685Z,93780.00
2023-08-04T13:45:18.676Z,93777.00
2023-08-04T13:47:46.784Z,93787.00
2023-08-04T13:50:16.364Z,93778.00
2023-08-04T13:52:46.333Z,93783.00
2023-08-04T13:55:15.996Z,93780.00
2023-08-04T13:57:42.890Z,93792.00
2023-08-04T14:00:14.218Z,93797.00
2023-08-04T14:02:43.556Z,93792.00
2023-08-04T14:05:12.102Z,93794.00
2023-08-04T14:07:39.382Z,93793.00
2023-08-04T14:10:10.942Z,93793.00
2023-08-04T14:12:38.648Z,93776.00
2023-08-04T14:15:06.801Z,93778.00
2023-08-04T14:17:36.194Z,93774.00
2023-08-04T14:20:06.914Z,93768.00
2023-08-04T14:22:36.343Z,93760.00
2023-08-04T14:25:06.453Z,93749.00
2023-08-04T14:27:33.325Z,93736.00
2023-08-04T14:30:01.951Z,93740.00
2023-08-04T14:32:29.530Z,93739.00
2023-08-04T14:34:56.524Z,93745.00
2023-08-04T14:37:23.467Z,93749.00
2023-08-04T14:39:52.020Z,93746.00
2023-08-04T14:42:19.528Z,93749.00
2023-08-04T14:44:46.511Z,93746.00
2023-08-04T14:47:13.547Z,93756.00
2023-08-04T14:49:42.823Z,93750.00
2023-08-04T14:52:11.953Z,93751.00
2023-08-04T14:54:44.195Z,93759.00
2023-08-04T14:57:11.058Z,93767.00
2023-08-04T14:59:38.515Z,93779.00
2023-08-04T15:02:06.691Z,93778.00
2023-08-04T15:04:33.943Z,93786.00
2023-08-04T15:07:05.952Z,93770.00
2023-08-04T15:09:35.391Z,93782.00
2023-08-04T15:12:04.633Z,93781.00
2023-08-04T15:14:31.649Z,93791.00
2023-08-04T15:16:58.686Z,93801.00
2023-08-04T15:19:32.987Z,93799.00
2023-08-04T15:22:00.026Z,93798.00
2023-08-04T15:24:27.143Z,93801.00
2023-08-04T15:26:54.009Z,93805.00
2023-08-04T15:29:23.399Z,93814.00
2023-08-04T15:31:50.359Z,93820.00
2023-08-04T15:34:17.343Z,93824.00
2023-08-04T15:36:46.671Z,93822.00
2023-08-04T15:39:13.873Z,93829.00
2023-08-04T15:41:45.766Z,93821.00
2023-08-04T15:44:13.138Z,93819.00
2023-08-04T15:46:44.687Z,93829.00
2023-08-04T15:49:11.653Z,93828.00
2023-08-04T15:51:41.088Z,93826.00
2023-08-04T15:54:08.016Z,93832.00
2023-08-04T15:56:34.895Z,93833.00
2023-08-04T15:59:01.825Z,93833.00
2023-08-04T16:01:31.526Z,93838.00
2023-08-04T16:04:00.928Z,93836.00
2023-08-04T16:06:30.440Z,93845.00
2023-08-04T16:09:02.299Z,93842.00
2023-08-04T16:11:31.979Z,93848.00
2023-08-04T16:13:59.075Z,93851.00
2023-08-04T16:16:26.057Z,93855.00
2023-08-04T16:18:56.372Z,93861.00
2023-08-04T16:21:26.206Z,93861.00
2023-08-04T16:23:53.302Z,93861.00
2023-08-04T16:26:22.299Z,93858.00
2023-08-04T16:28:49.226Z,93861.00
2023-08-04T16:31:18.456Z,93861.00
2023-08-04T16:33:53.637Z,93858.00
2023-08-04T16:36:22.211Z,93850.00
2023-08-04T16:38:49.108Z,93845.00
2023-08-04T16:41:17.277Z,93838.00
2023-08-04T16:43:44.685Z,93840.00
2023-08-04T16:46:14.905Z,93843.00
2023-08-04T16:48:47.544Z,93831.00
2023-08-04T16:51:16.929Z,93836.00
2023-08-04T16:53:46.044Z,93840.00
2023-08-04T16:56:17.734Z,93850.00
2023-08-04T16:58:47.149Z,93851.00
2023-08-04T17:01:16.369Z,93846.00
2023-08-04T17:03:43.404Z,93852.00
2023-08-04T17:06:18.129Z,93852.00
2023-08-04T17:08:45.561Z,93864.00
2023-08-04T17:11:14.957Z,93868.00
2023-08-04T17:13:44.952Z,93873.00
2023-08-04T17:16:16.634Z,93862.00
2023-08-04T17:18:43.980Z,93861.00
2023-08-04T17:21:13.435Z,93861.00
2023-08-04T17:23:42.621Z,93870.00
2023-08-04T17:26:09.671Z,93868.00
2023-08-04T17:28:36.634Z,93861.00
2023-08-04T17:31:05.528Z,93873.00
2023-08-04T17:33:36.106Z,93873.00
2023-08-04T17:36:06.960Z,93875.00
2023-08-04T17:38:38.597Z,93876.00
2023-08-04T17:41:05.479Z,93881.00
2023-08-04T17:43:35.098Z,93886.00
2023-08-04T17:46:02.565Z,93882.00
2023-08-04T17:48:29.531Z,93887.00
2023-08-04T17:50:59.840Z,93884.00
2023-08-04T17:53:29.125Z,93895.00
2023-08-04T17:55:56.067Z,93892.00
2023-08-04T17:58:23.078Z,93899.00
2023-08-04T18:00:50.316Z,93896.00
2023-08-04T18:03:17.367Z,93895.00
2023-08-04T18:05:46.652Z,93903.00
2023-08-04T18:08:16.235Z,93913.00
2023-08-04T18:10:48.322Z,93916.00
2023-08-04T18:13:20.823Z,93921.00
2023-08-04T18:15:52.353Z,93922.00
2023-08-04T18:18:19.325Z,93941.00
2023-08-04T18:20:46.218Z,93951.00
2023-08-04T18:23:13.101Z,93959.00
2023-08-04T18:25:44.591Z,93961.00
2023-08-04T18:28:11.513Z,93957.00
2023-08-04T18:30:38.484Z,93961.00
2023-08-04T18:33:05.992Z,93954.00
2023-08-04T18:35:32.956Z,93958.00
2023-08-04T18:38:04.503Z,93960.00
2023-08-04T18:40:31.703Z,93967.00
2023-08-04T18:43:00.179Z,93969.00
2023-08-04T18:45:32.686Z,93972.00
2023-08-04T18:48:01.700Z,93977.00
2023-08-04T18:50:28.738Z,93970.00
2023-08-04T18:52:55.625Z,93975.00
2023-08-04T18:55:22.531Z,93971.00
2023-08-04T18:57:49.757Z,93971.00
2023-08-04T19:00:22.851Z,93972.00
2023-08-04T19:02:49.845Z,93981.00
2023-08-04T19:05:19.496Z,93980.00
2023-08-04T19:07:47.260Z,93978.00
2023-08-04T19:10:16.542Z,93987.00
2023-08-04T19:12:45.983Z,93992.00
2023-08-04T19:15:12.969Z,93995.00
2023-08-04T19:17:42.027Z,94009.00
2023-08-04T19:20:09.857Z,94007.00
2023-08-04T19:22:39.197Z,94010.00
2023-08-04T19:25:09.277Z,94013.00
2023-08-04T19:27:36.219Z,94006.00
2023-08-04T19:30:05.588Z,93994.00
2023-08-04T19:32:32.768Z,94009.00
2023-08-04T19:35:02.295Z,94001.00
2023-08-04T19:37:29.267Z,94001.00
2023-08-04T19:39:56.183Z,94004.00
2023-08-04T19:42:23.229Z,94002.00
2023-08-04T19:44:50.130Z,94001.00
2023-08-04T19:47:17.982Z,94008.00
2023-08-04T19:49:47.407Z,94019.00
2023-08-04T19:52:14.315Z,94016.00
2023-08-04T19:54:42.444Z,94011.00
2023-08-04T19:57:09.371Z,94015.00
2023-08-04T19:59:36.335Z,94015.00
2023-08-04T20:02:04.059Z,94011.00
2023-08-04T20:04:31.315Z,94017.00
2023-08-04T20:06:58.433Z,94023.00
2023-08-04T20:09:27.978Z,94022.00
2023-08-04T20:11:54.939Z,94028.00
2023-08-04T20:14:22.044Z,94029.00
2023-08-04T20:16:51.816Z,94029.00
2023-08-04T20:19:19.523Z,94027.00
2023-08-04T20:21:46.399Z,94028.00
2023-08-04T20:24:17.961Z,94027.00
2023-08-04T20:26:44.973Z,94034.00
2023-08-04T20:29:11.901Z,94032.00
2023-08-04T20:31:38.804Z,94050.00
2023-08-04T20:34:07.838Z,94056.00
2023-08-04T20:36:34.730Z,94063.00
2023-08-04T20:39:03.934Z,94060.00
2023-08-04T20:41:33.948Z,94057.00
2023-08-04T20:44:00.982Z,94068.00
2023-08-04T20:46:30.170Z,94069.00
2023-08-04T20:48:58.580Z,94067.00
2023-08-04T20:51:27.793Z,94072.00
2023-08-04T20:53:54.728Z,94078.00
2023-08-04T20:56:24.100Z,94079.00
2023-08-04T20:58:53.082Z,94081.00
2023-08-04T21:01:20.112Z,94094.00
2023-08-04T21:03:47.018Z,94082.00
2023-08-04T21:06:14.006Z,94078.00
2023-08-04T21:08:41.052Z,94069.00
2023-08-04T21:11:07.967Z,94067.00
2023-08-04T21:13:37.029Z,94066.00
2023-08-04T21:16:05.401Z,94073.00
2023-08-04T21:18:33.741Z,94079.00
2023-08-04T21:21:00.720Z,94079.00
2023-08-04T21:23:27.686Z,94082.00
2023-08-04T21:25:57.186Z,94087.00
2023-08-04T21:28:24.253Z,94081.00
2023-08-04T21:30:55.282Z,94082.00
2023-08-04T21:33:22.378Z,94100.00
2023-08-04T21:36:03.294Z,94095.00
2023-08-04T21:38:31.024Z,94099.00
2023-08-04T21:41:06.447Z,94096.00
2023-08-04T21:43:36.549Z,94092.00
2023-08-04T21:46:14.765Z,94089.00
2023-08-04T21:48:44.455Z,94087.00
2023-08-04T21:51:13.361Z,94089.00
2023-08-04T21:53:41.026Z,94090.00
2023-08-04T21:56:08.180Z,94097.00
2023-08-04T21:58:35.427Z,94100.00
2023-08-04T22:01:14.875Z,94109.00
2023-08-04T22:03:44.085Z,94108.00
2023-08-04T22:06:13.532Z,94105.00
2023-08-04T22:08:42.906Z,94091.00
2023-08-04T22:11:13.200Z,94086.00
2023-08-04T22:13:41.853Z,94086.00
2023-08-04T22:16:09.602Z,94086.00
2023-08-04T22:18:39.892Z,94072.00
2023-08-04T22:21:10.400Z,94069.00
2023-08-04T22:23:40.393Z,94068.00
2023-08-04T22:26:08.302Z,94061.00
2023-08-04T22:28:36.129Z,94070.00
2023-08-04T22:31:03.552Z,94066.00
2023-08-04T22:33:39.172Z,94054.00
2023-08-04T22:36:06.233Z,94057.00
2023-08-04T22:38:33.178Z,94064.00
2023-08-04T22:41:02.629Z,94065.00
2023-08-04T22:43:31.246Z,94057.00
2023-08-04T22:45:58.179Z,94066.00
2023-08-04T22:48:28.363Z,94061.00
2023-08-04T22:50:55.363Z,94057.00
2023-08-04T22:53:24.760Z,94065.00
2023-08-04T22:55:51.716Z,94062.00
2023-08-04T22:58:18.693Z,94058.00
2023-08-04T23:00:47.911Z,94059.00
2023-08-04T23:03:14.912Z,94062.00
2023-08-04T23:05:42.026Z,94068.00
2023-08-04T23:08:08.899Z,94068.00
2023-08-04T23:10:35.747Z,94064.00
2023-08-04T23:13:02.676Z,94055.00
2023-08-04T23:15:31.814Z,94061.00
2023-08-04T23:18:03.461Z,94063.00
2023-08-04T23:20:30.508Z,94045.00
2023-08-04T23:22:57.387Z,94053.00
2023-08-04T23:25:26.402Z,94056.00
2023-08-04T23:27:55.538Z,94056.00
2023-08-04T23:30:22.557Z,94052.00
2023-08-04T23:32:49.527Z,94053.00
2023-08-04T23:35:16.694Z,94052.00
2023-08-04T23:37:48.441Z,94044.00
2023-08-04T23:40:15.504Z,94040.00
2023-08-04T23:42:44.579Z,94048.00
2023-08-04T23:45:11.493Z,94053.00
2023-08-04T23:47:38.441Z,94060.00
2023-08-04T23:50:06.390Z,94061.00
2023-08-04T23:52:33.309Z,94066.00
2023-08-04T23:55:00.213Z,94061.00
2023-08-04T23:57:27.122Z,94071.00
2023-08-04T23:59:54.046Z,94066.00
